sensor_id;sensor_type;location;lat;lon;timestamp;pressure;altitude;pressure_sealevel;temperature;humidity
19795;BME280;10057;59.402;17.866;2023-04-03T00:00:18;103348.06;;;-1.69;57.23
19795;BME280;10057;59.402;17.866;2023-04-03T00:02:45;103334.00;;;-1.73;57.34
19795;BME280;10057;59.402;17.866;2023-04-03T00:05:12;103341.81;;;-1.73;57.08
19795;BME280;10057;59.402;17.866;2023-04-03T00:07:38;103342.69;;;-1.72;57.03
19795;BME280;10057;59.402;17.866;2023-04-03T00:10:06;103346.28;;;-1.70;57.23
19795;BME280;10057;59.402;17.866;2023-04-03T00:12:33;103340.91;;;-1.73;57.33
19795;BME280;10057;59.402;17.866;2023-04-03T00:15:00;103338.47;;;-1.70;57.34
19795;BME280;10057;59.402;17.866;2023-04-03T00:17:27;103337.66;;;-1.69;57.22
19795;BME280;10057;59.402;17.866;2023-04-03T00:19:53;103346.28;;;-1.70;57.34
19795;BME280;10057;59.402;17.866;2023-04-03T00:22:20;103353.09;;;-1.72;57.00
19795;BME280;10057;59.402;17.866;2023-04-03T00:24:47;103349.63;;;-1.73;57.43
19795;BME280;10057;59.402;17.866;2023-04-03T00:27:13;103351.22;;;-1.75;57.47
19795;BME280;10057;59.402;17.866;2023-04-03T00:29:42;103347.56;;;-1.78;57.35
19795;BME280;10057;59.402;17.866;2023-04-03T00:32:08;103345.59;;;-1.82;57.84
19795;BME280;10057;59.402;17.866;2023-04-03T00:34:35;103351.72;;;-1.82;57.47
19795;BME280;10057;59.402;17.866;2023-04-03T00:37:02;103347.25;;;-1.84;57.83
19795;BME280;10057;59.402;17.866;2023-04-03T00:39:29;103342.94;;;-1.84;57.80
19795;BME280;10057;59.402;17.866;2023-04-03T00:41:56;103353.41;;;-1.82;58.23
19795;BME280;10057;59.402;17.866;2023-04-03T00:47:16;103355.59;;;-1.90;58.36
19795;BME280;10057;59.402;17.866;2023-04-03T00:49:44;103358.91;;;-1.93;58.07
19795;BME280;10057;59.402;17.866;2023-04-03T00:52:16;103353.72;;;-1.93;57.83
19795;BME280;10057;59.402;17.866;2023-04-03T00:54:45;103354.59;;;-1.92;57.89
19795;BME280;10057;59.402;17.866;2023-04-03T00:57:13;103358.22;;;-1.90;58.02
19795;BME280;10057;59.402;17.866;2023-04-03T00:59:45;103345.09;;;-1.92;57.90
19795;BME280;10057;59.402;17.866;2023-04-03T01:02:14;103358.38;;;-1.87;58.37
19795;BME280;10057;59.402;17.866;2023-04-03T01:04:43;103352.28;;;-1.87;58.10
19795;BME280;10057;59.402;17.866;2023-04-03T01:07:14;103360.09;;;-1.87;57.95
19795;BME280;10057;59.402;17.866;2023-04-03T01:09:42;103359.09;;;-1.89;58.56
19795;BME280;10057;59.402;17.866;2023-04-03T01:14:44;103350.28;;;-1.92;57.86
19795;BME280;10057;59.402;17.866;2023-04-03T01:25:28;103349.00;;;-2.00;58.12
19795;BME280;10057;59.402;17.866;2023-04-03T01:27:55;103352.41;;;-2.01;58.03
19795;BME280;10057;59.402;17.866;2023-04-03T01:30:31;103363.72;;;-2.00;58.55
19795;BME280;10057;59.402;17.866;2023-04-03T01:32:59;103361.94;;;-2.01;58.61
19795;BME280;10057;59.402;17.866;2023-04-03T01:35:26;103363.72;;;-2.00;58.53
19795;BME280;10057;59.402;17.866;2023-04-03T01:37:52;103363.00;;;-1.98;58.72
19795;BME280;10057;59.402;17.866;2023-04-03T01:40:19;103360.38;;;-1.98;58.87
19795;BME280;10057;59.402;17.866;2023-04-03T01:42:46;103358.41;;;-2.02;58.26
19795;BME280;10057;59.402;17.866;2023-04-03T01:45:13;103360.22;;;-2.01;58.40
19795;BME280;10057;59.402;17.866;2023-04-03T01:47:40;103361.81;;;-2.03;58.28
19795;BME280;10057;59.402;17.866;2023-04-03T01:50:07;103362.53;;;-2.05;58.65
19795;BME280;10057;59.402;17.866;2023-04-03T01:52:34;103365.25;;;-2.04;58.65
19795;BME280;10057;59.402;17.866;2023-04-03T01:55:00;103363.72;;;-2.00;58.92
19795;BME280;10057;59.402;17.866;2023-04-03T01:57:27;103366.31;;;-2.00;58.57
19795;BME280;10057;59.402;17.866;2023-04-03T01:59:54;103368.81;;;-2.02;58.64
19795;BME280;10057;59.402;17.866;2023-04-03T02:02:21;103370.28;;;-2.07;58.44
19795;BME280;10057;59.402;17.866;2023-04-03T02:04:47;103365.88;;;-2.08;58.72
19795;BME280;10057;59.402;17.866;2023-04-03T02:07:14;103369.28;;;-2.09;59.03
19795;BME280;10057;59.402;17.866;2023-04-03T02:09:41;103380.50;;;-2.10;58.91
19795;BME280;10057;59.402;17.866;2023-04-03T02:12:07;103377.84;;;-2.11;59.14
19795;BME280;10057;59.402;17.866;2023-04-03T02:14:34;103371.69;;;-2.12;58.87
19795;BME280;10057;59.402;17.866;2023-04-03T02:17:01;103376.91;;;-2.12;58.94
19795;BME280;10057;59.402;17.866;2023-04-03T02:19:31;103375.06;;;-2.15;58.80
19795;BME280;10057;59.402;17.866;2023-04-03T02:21:58;103373.09;;;-2.19;58.94
19795;BME280;10057;59.402;17.866;2023-04-03T02:24:25;103376.75;;;-2.30;59.15
19795;BME280;10057;59.402;17.866;2023-04-03T02:26:51;103385.19;;;-2.34;59.24
19795;BME280;10057;59.402;17.866;2023-04-03T02:29:18;103377.31;;;-2.35;59.01
19795;BME280;10057;59.402;17.866;2023-04-03T02:31:45;103389.69;;;-2.31;59.41
19795;BME280;10057;59.402;17.866;2023-04-03T02:34:12;103385.38;;;-2.31;58.90
19795;BME280;10057;59.402;17.866;2023-04-03T02:36:39;103389.69;;;-2.31;59.37
19795;BME280;10057;59.402;17.866;2023-04-03T02:39:06;103385.13;;;-2.35;59.39
19795;BME280;10057;59.402;17.866;2023-04-03T02:41:32;103389.16;;;-2.41;59.47
19795;BME280;10057;59.402;17.866;2023-04-03T02:44:04;103385.72;;;-2.40;59.49
19795;BME280;10057;59.402;17.866;2023-04-03T02:46:32;103379.75;;;-2.39;59.36
19795;BME280;10057;59.402;17.866;2023-04-03T02:48:58;103374.56;;;-2.39;60.03
19795;BME280;10057;59.402;17.866;2023-04-03T02:51:26;103388.34;;;-2.40;59.76
19795;BME280;10057;59.402;17.866;2023-04-03T02:53:52;103385.91;;;-2.36;59.89
19795;BME280;10057;59.402;17.866;2023-04-03T02:56:19;103395.53;;;-2.35;59.56
19795;BME280;10057;59.402;17.866;2023-04-03T02:58:47;103388.50;;;-2.36;59.26
19795;BME280;10057;59.402;17.866;2023-04-03T03:01:14;103385.72;;;-2.40;59.86
19795;BME280;10057;59.402;17.866;2023-04-03T03:03:41;103383.00;;;-2.43;60.04
19795;BME280;10057;59.402;17.866;2023-04-03T03:06:10;103387.25;;;-2.43;59.49
19795;BME280;10057;59.402;17.866;2023-04-03T03:08:38;103392.38;;;-2.45;59.86
19795;BME280;10057;59.402;17.866;2023-04-03T03:11:04;103392.47;;;-2.43;59.84
19795;BME280;10057;59.402;17.866;2023-04-03T03:13:31;103392.38;;;-2.45;59.63
19795;BME280;10057;59.402;17.866;2023-04-03T03:15:58;103387.19;;;-2.45;60.05
19795;BME280;10057;59.402;17.866;2023-04-03T03:18:25;103394.09;;;-2.45;60.10
19795;BME280;10057;59.402;17.866;2023-04-03T03:20:54;103399.28;;;-2.45;60.18
19795;BME280;10057;59.402;17.866;2023-04-03T03:23:23;103394.09;;;-2.45;60.41
19795;BME280;10057;59.402;17.866;2023-04-03T03:25:57;103396.69;;;-2.45;60.06
19795;BME280;10057;59.402;17.866;2023-04-03T03:28:24;103395.00;;;-2.45;60.07
19795;BME280;10057;59.402;17.866;2023-04-03T03:30:51;103394.63;;;-2.51;60.10
19795;BME280;10057;59.402;17.866;2023-04-03T03:33:18;103393.66;;;-2.53;60.02
19795;BME280;10057;59.402;17.866;2023-04-03T03:35:45;103397.03;;;-2.54;60.45
19795;BME280;10057;59.402;17.866;2023-04-03T03:38:12;103397.84;;;-2.55;60.60
19795;BME280;10057;59.402;17.866;2023-04-03T03:40:39;103399.28;;;-2.60;60.11
19795;BME280;10057;59.402;17.866;2023-04-03T03:43:06;103396.84;;;-2.57;60.34
19795;BME280;10057;59.402;17.866;2023-04-03T03:45:32;103399.63;;;-2.54;60.07
19795;BME280;10057;59.402;17.866;2023-04-03T03:47:59;103395.34;;;-2.53;60.12
19795;BME280;10057;59.402;17.866;2023-04-03T03:50:26;103397.03;;;-2.54;60.22
19795;BME280;10057;59.402;17.866;2023-04-03T03:52:53;103409.25;;;-2.53;60.33
19795;BME280;10057;59.402;17.866;2023-04-03T03:55:19;103405.47;;;-2.58;60.68
19795;BME280;10057;59.402;17.866;2023-04-03T03:57:46;103404.47;;;-2.60;60.41
19795;BME280;10057;59.402;17.866;2023-04-03T04:00:13;103404.47;;;-2.60;60.66
19795;BME280;10057;59.402;17.866;2023-04-03T04:02:40;103407.06;;;-2.60;60.56
19795;BME280;10057;59.402;17.866;2023-04-03T04:05:08;103409.66;;;-2.60;60.38
19795;BME280;10057;59.402;17.866;2023-04-03T04:07:34;103406.28;;;-2.59;60.32
19795;BME280;10057;59.402;17.866;2023-04-03T04:10:02;103406.47;;;-2.56;60.63
19795;BME280;10057;59.402;17.866;2023-04-03T04:12:29;103401.88;;;-2.60;60.65
19795;BME280;10057;59.402;17.866;2023-04-03T04:14:55;103404.41;;;-2.62;60.84
19795;BME280;10057;59.402;17.866;2023-04-03T04:17:22;103414.59;;;-2.65;60.46
19795;BME280;10057;59.402;17.866;2023-04-03T04:19:49;103403.31;;;-2.65;60.77
19795;BME280;10057;59.402;17.866;2023-04-03T04:22:16;103411.13;;;-2.65;60.67
19795;BME280;10057;59.402;17.866;2023-04-03T04:24:42;103410.13;;;-2.67;60.56
19795;BME280;10057;59.402;17.866;2023-04-03T04:27:09;103411.75;;;-2.69;60.83
19795;BME280;10057;59.402;17.866;2023-04-03T04:29:36;103409.03;;;-2.71;61.15
19795;BME280;10057;59.402;17.866;2023-04-03T04:32:04;103410.84;;;-2.70;61.23
19795;BME280;10057;59.402;17.866;2023-04-03T04:34:30;103416.75;;;-2.72;61.32
19795;BME280;10057;59.402;17.866;2023-04-03T04:36:57;103413.34;;;-2.71;61.67
19795;BME280;10057;59.402;17.866;2023-04-03T04:39:24;103416.75;;;-2.72;61.71
19795;BME280;10057;59.402;17.866;2023-04-03T04:41:51;103415.13;;;-2.70;61.13
19795;BME280;10057;59.402;17.866;2023-04-03T04:44:18;103418.72;;;-2.68;61.33
19795;BME280;10057;59.402;17.866;2023-04-03T04:46:46;103411.75;;;-2.69;61.71
19795;BME280;10057;59.402;17.866;2023-04-03T04:49:13;103415.31;;;-2.67;61.73
19795;BME280;10057;59.402;17.866;2023-04-03T04:51:40;103412.72;;;-2.67;61.66
19795;BME280;10057;59.402;17.866;2023-04-03T04:54:17;103401.34;;;-2.69;61.45
19795;BME280;10057;59.402;17.866;2023-04-03T04:56:44;103408.34;;;-2.68;61.24
19795;BME280;10057;59.402;17.866;2023-04-03T04:59:11;103402.94;;;-2.71;61.83
19795;BME280;10057;59.402;17.866;2023-04-03T05:01:38;103411.75;;;-2.69;61.72
19795;BME280;10057;59.402;17.866;2023-04-03T05:04:05;103409.16;;;-2.69;61.53
19795;BME280;10057;59.402;17.866;2023-04-03T05:06:31;103404.91;;;-2.67;62.15
19795;BME280;10057;59.402;17.866;2023-04-03T05:08:59;103409.59;;;-2.62;61.98
19795;BME280;10057;59.402;17.866;2023-04-03T05:11:26;103407.06;;;-2.60;61.76
19795;BME280;10057;59.402;17.866;2023-04-03T05:13:53;103409.97;;;-2.55;61.43
19795;BME280;10057;59.402;17.866;2023-04-03T05:16:20;103412.63;;;-2.54;61.47
19795;BME280;10057;59.402;17.866;2023-04-03T05:18:46;103409.25;;;-2.53;61.79
19795;BME280;10057;59.402;17.866;2023-04-03T05:21:13;103402.41;;;-2.51;62.41
19795;BME280;10057;59.402;17.866;2023-04-03T05:23:40;103408.63;;;-2.49;61.80
19795;BME280;10057;59.402;17.866;2023-04-03T05:26:07;103412.13;;;-2.48;62.11
19795;BME280;10057;59.402;17.866;2023-04-03T05:28:34;103408.00;;;-2.45;62.08
19795;BME280;10057;59.402;17.866;2023-04-03T05:31:01;103409.06;;;-2.41;62.11
19795;BME280;10057;59.402;17.866;2023-04-03T05:33:28;103406.72;;;-2.36;61.73
19795;BME280;10057;59.402;17.866;2023-04-03T05:35:55;103406.72;;;-2.36;62.27
19795;BME280;10057;59.402;17.866;2023-04-03T05:38:22;103399.19;;;-2.32;62.06
19795;BME280;10057;59.402;17.866;2023-04-03T05:40:49;103405.38;;;-2.30;62.34
19795;BME280;10057;59.402;17.866;2023-04-03T05:43:15;103411.94;;;-2.22;62.35
19795;BME280;10057;59.402;17.866;2023-04-03T05:45:43;103401.72;;;-2.19;62.61
19795;BME280;10057;59.402;17.866;2023-04-03T05:48:12;103405.63;;;-2.10;61.77
19795;BME280;10057;59.402;17.866;2023-04-03T05:50:39;103405.09;;;-2.05;62.48
19795;BME280;10057;59.402;17.866;2023-04-03T05:53:16;103406.22;;;-2.00;62.28
19795;BME280;10057;59.402;17.866;2023-04-03T05:55:44;103402.03;;;-1.98;62.60
19795;BME280;10057;59.402;17.866;2023-04-03T05:58:11;103397.72;;;-1.97;62.33
19795;BME280;10057;59.402;17.866;2023-04-03T06:00:38;103396.25;;;-1.92;62.55
19795;BME280;10057;59.402;17.866;2023-04-03T06:03:05;103401.81;;;-1.86;62.32
19795;BME280;10057;59.402;17.866;2023-04-03T06:05:33;103407.34;;;-1.80;62.17
19795;BME280;10057;59.402;17.866;2023-04-03T06:07:59;103405.91;;;-1.75;62.40
19795;BME280;10057;59.402;17.866;2023-04-03T06:10:26;103411.28;;;-1.72;63.02
19795;BME280;10057;59.402;17.866;2023-04-03T06:12:53;103405.53;;;-1.66;62.51
19795;BME280;10057;59.402;17.866;2023-04-03T06:15:20;103412.78;;;-1.60;62.64
19795;BME280;10057;59.402;17.866;2023-04-03T06:17:47;103404.41;;;-1.55;62.78
19795;BME280;10057;59.402;17.866;2023-04-03T06:20:14;103412.63;;;-1.47;62.65
19795;BME280;10057;59.402;17.866;2023-04-03T06:22:41;103419.16;;;-1.39;62.61
19795;BME280;10057;59.402;17.866;2023-04-03T06:25:08;103418.50;;;-1.35;62.94
19795;BME280;10057;59.402;17.866;2023-04-03T06:27:36;103415.34;;;-1.29;62.59
19795;BME280;10057;59.402;17.866;2023-04-03T06:30:04;103412.16;;;-1.24;63.10
19795;BME280;10057;59.402;17.866;2023-04-03T06:32:31;103422.03;;;-1.18;62.91
19795;BME280;10057;59.402;17.866;2023-04-03T06:34:58;103418.75;;;-1.14;62.90
19795;BME280;10057;59.402;17.866;2023-04-03T06:37:25;103419.09;;;-1.08;63.08
19795;BME280;10057;59.402;17.866;2023-04-03T06:39:52;103412.56;;;-1.00;62.95
19795;BME280;10057;59.402;17.866;2023-04-03T06:42:19;103417.22;;;-0.94;62.83
19795;BME280;10057;59.402;17.866;2023-04-03T06:44:45;103430.47;;;-0.89;63.13
19795;BME280;10057;59.402;17.866;2023-04-03T06:47:14;103423.16;;;-0.80;63.22
19795;BME280;10057;59.402;17.866;2023-04-03T06:49:41;103426.09;;;-0.74;63.31
19795;BME280;10057;59.402;17.866;2023-04-03T06:52:08;103429.81;;;-0.69;63.16
19795;BME280;10057;59.402;17.866;2023-04-03T06:54:35;103413.53;;;-0.65;63.23
19795;BME280;10057;59.402;17.866;2023-04-03T06:57:02;103419.19;;;-0.56;63.20
19795;BME280;10057;59.402;17.866;2023-04-03T06:59:29;103425.56;;;-0.51;63.41
19795;BME280;10057;59.402;17.866;2023-04-03T07:01:56;103420.66;;;-0.44;63.56
19795;BME280;10057;59.402;17.866;2023-04-03T07:04:25;103418.34;;;-0.38;63.38
19795;BME280;10057;59.402;17.866;2023-04-03T07:06:52;103412.53;;;-0.33;63.44
19795;BME280;10057;59.402;17.866;2023-04-03T07:09:19;103417.19;;;-0.27;63.17
19795;BME280;10057;59.402;17.866;2023-04-03T07:11:47;103413.97;;;-0.21;63.50
19795;BME280;10057;59.402;17.866;2023-04-03T07:14:14;103412.50;;;-0.16;63.59
19795;BME280;10057;59.402;17.866;2023-04-03T07:16:41;103420.69;;;-0.09;63.22
19795;BME280;10057;59.402;17.866;2023-04-03T07:19:08;103417.56;;;-0.02;63.57
19795;BME280;10057;59.402;17.866;2023-04-03T07:21:35;103412.53;;;0.03;63.63
19795;BME280;10057;59.402;17.866;2023-04-03T07:24:02;103411.13;;;0.10;63.40
19795;BME280;10057;59.402;17.866;2023-04-03T07:26:29;103410.53;;;0.15;63.35
19795;BME280;10057;59.402;17.866;2023-04-03T07:28:56;103412.41;;;0.18;63.59
19795;BME280;10057;59.402;17.866;2023-04-03T07:31:23;103416.94;;;0.22;63.26
19795;BME280;10057;59.402;17.866;2023-04-03T07:33:51;103413.66;;;0.26;63.33
19795;BME280;10057;59.402;17.866;2023-04-03T07:36:20;103413.22;;;0.35;63.58
19795;BME280;10057;59.402;17.866;2023-04-03T07:38:48;103411.25;;;0.49;63.87
19795;BME280;10057;59.402;17.866;2023-04-03T07:41:16;103407.56;;;0.63;63.26
19795;BME280;10057;59.402;17.866;2023-04-03T07:43:44;103409.06;;;0.77;63.41
19795;BME280;10057;59.402;17.866;2023-04-03T07:46:12;103407.09;;;0.91;63.22
19795;BME280;10057;59.402;17.866;2023-04-03T07:48:39;103412.09;;;1.06;62.93
19795;BME280;10057;59.402;17.866;2023-04-03T07:51:06;103413.41;;;1.15;62.83
19795;BME280;10057;59.402;17.866;2023-04-03T07:53:33;103410.50;;;1.29;62.77
19795;BME280;10057;59.402;17.866;2023-04-03T07:56:00;103420.72;;;1.43;62.60
19795;BME280;10057;59.402;17.866;2023-04-03T07:58:29;103416.91;;;1.56;62.39
19795;BME280;10057;59.402;17.866;2023-04-03T08:00:56;103408.63;;;1.66;62.20
19795;BME280;10057;59.402;17.866;2023-04-03T08:03:23;103415.97;;;1.75;61.95
19795;BME280;10057;59.402;17.866;2023-04-03T08:05:51;103408.72;;;1.90;62.15
19795;BME280;10057;59.402;17.866;2023-04-03T08:08:21;103405.91;;;2.07;62.26
19795;BME280;10057;59.402;17.866;2023-04-03T08:10:53;103411.09;;;2.28;62.69
19795;BME280;10057;59.402;17.866;2023-04-03T08:13:21;103404.38;;;2.57;62.96
19795;BME280;10057;59.402;17.866;2023-04-03T08:15:48;103404.97;;;2.96;64.18
19795;BME280;10057;59.402;17.866;2023-04-03T08:18:15;103402.25;;;3.43;65.96
19795;BME280;10057;59.402;17.866;2023-04-03T08:20:43;103403.84;;;3.90;66.31
19795;BME280;10057;59.402;17.866;2023-04-03T08:23:10;103405.19;;;4.33;67.47
19795;BME280;10057;59.402;17.866;2023-04-03T08:25:39;103403.06;;;4.79;68.19
19795;BME280;10057;59.402;17.866;2023-04-03T08:28:06;103402.06;;;5.05;67.58
19795;BME280;10057;59.402;17.866;2023-04-03T08:30:33;103402.88;;;5.36;67.79
19795;BME280;10057;59.402;17.866;2023-04-03T08:33:01;103411.66;;;5.69;68.19
19795;BME280;10057;59.402;17.866;2023-04-03T08:35:28;103402.78;;;5.99;68.58
19795;BME280;10057;59.402;17.866;2023-04-03T08:37:55;103398.00;;;6.21;67.67
19795;BME280;10057;59.402;17.866;2023-04-03T08:40:23;103404.06;;;6.56;67.71
19795;BME280;10057;59.402;17.866;2023-04-03T08:48:04;103385.34;;;7.31;65.28
19795;BME280;10057;59.402;17.866;2023-04-03T08:50:38;103381.94;;;7.37;64.40
19795;BME280;10057;59.402;17.866;2023-04-03T08:53:19;103384.97;;;7.60;63.94
19795;BME280;10057;59.402;17.866;2023-04-03T08:55:49;103377.56;;;7.92;63.42
19795;BME280;10057;59.402;17.866;2023-04-03T08:58:19;103375.22;;;8.11;62.24
19795;BME280;10057;59.402;17.866;2023-04-03T09:00:58;103384.47;;;8.40;62.24
19795;BME280;10057;59.402;17.866;2023-04-03T09:03:29;103377.84;;;8.73;61.06
19795;BME280;10057;59.402;17.866;2023-04-03T09:06:04;103377.44;;;9.14;60.43
19795;BME280;10057;59.402;17.866;2023-04-03T09:08:40;103372.41;;;9.41;58.23
19795;BME280;10057;59.402;17.866;2023-04-03T09:11:16;103375.84;;;9.33;58.57
19795;BME280;10057;59.402;17.866;2023-04-03T09:19:18;103371.63;;;9.53;54.99
19795;BME280;10057;59.402;17.866;2023-04-03T09:21:48;103368.06;;;9.49;55.85
19795;BME280;10057;59.402;17.866;2023-04-03T09:24:16;103370.78;;;9.56;54.48
19795;BME280;10057;59.402;17.866;2023-04-03T09:26:56;103361.03;;;9.55;53.84
19795;BME280;10057;59.402;17.866;2023-04-03T09:29:29;103361.97;;;9.60;53.59
19795;BME280;10057;59.402;17.866;2023-04-03T09:31:59;103363.56;;;9.41;52.08
19795;BME280;10057;59.402;17.866;2023-04-03T09:34:30;103362.38;;;9.10;50.54
19795;BME280;10057;59.402;17.866;2023-04-03T09:36:59;103355.84;;;8.77;50.44
19795;BME280;10057;59.402;17.866;2023-04-03T09:39:49;103357.31;;;8.52;50.63
19795;BME280;10057;59.402;17.866;2023-04-03T09:42:22;103362.72;;;8.00;48.74
19795;BME280;10057;59.402;17.866;2023-04-03T09:44:57;103364.06;;;7.24;48.83
19795;BME280;10057;59.402;17.866;2023-04-03T09:47:31;103350.63;;;6.66;49.24
19795;BME280;10057;59.402;17.866;2023-04-03T09:52:44;103354.78;;;5.78;48.04
19795;BME280;10057;59.402;17.866;2023-04-03T09:55:25;103354.88;;;5.46;48.38
19795;BME280;10057;59.402;17.866;2023-04-03T09:58:04;103355.75;;;5.45;49.01
19795;BME280;10057;59.402;17.866;2023-04-03T10:00:37;103351.53;;;5.52;49.49
19795;BME280;10057;59.402;17.866;2023-04-03T10:03:08;103346.41;;;5.58;48.44
19795;BME280;10057;59.402;17.866;2023-04-03T10:05:48;103346.28;;;5.53;48.77
19795;BME280;10057;59.402;17.866;2023-04-03T10:10:47;103348.16;;;5.57;48.47
19795;BME280;10057;59.402;17.866;2023-04-03T10:13:16;103344.06;;;5.70;47.78
19795;BME280;10057;59.402;17.866;2023-04-03T10:15:57;103341.66;;;5.79;47.70
19795;BME280;10057;59.402;17.866;2023-04-03T10:24:25;103330.31;;;5.82;47.21
19795;BME280;10057;59.402;17.866;2023-04-03T10:32:54;103323.78;;;5.66;45.85
19795;BME280;10057;59.402;17.866;2023-04-03T10:38:33;103319.19;;;5.57;46.16
19795;BME280;10057;59.402;17.866;2023-04-03T10:43:59;103312.81;;;5.14;45.75
19795;BME280;10057;59.402;17.866;2023-04-03T10:46:47;103309.66;;;5.28;46.79
19795;BME280;10057;59.402;17.866;2023-04-03T10:51:56;103301.84;;;5.67;46.53
19795;BME280;10057;59.402;17.866;2023-04-03T10:54:44;103296.41;;;5.96;46.67
19795;BME280;10057;59.402;17.866;2023-04-03T10:57:14;103289.63;;;6.08;45.91
19795;BME280;10057;59.402;17.866;2023-04-03T10:59:48;103283.00;;;5.88;45.32
19795;BME280;10057;59.402;17.866;2023-04-03T11:02:23;103277.53;;;5.79;45.42
19795;BME280;10057;59.402;17.866;2023-04-03T11:05:07;103266.44;;;5.92;46.22
19795;BME280;10057;59.402;17.866;2023-04-03T11:07:40;103262.63;;;6.18;46.27
19795;BME280;10057;59.402;17.866;2023-04-03T11:10:14;103261.25;;;6.37;45.73
19795;BME280;10057;59.402;17.866;2023-04-03T11:12:56;103250.03;;;6.48;46.24
19795;BME280;10057;59.402;17.866;2023-04-03T11:15:29;103244.09;;;6.59;46.14
19795;BME280;10057;59.402;17.866;2023-04-03T11:18:19;103252.38;;;6.79;46.02
19795;BME280;10057;59.402;17.866;2023-04-03T11:21:02;103244.88;;;7.02;45.48
19795;BME280;10057;59.402;17.866;2023-04-03T11:23:34;103241.25;;;6.97;45.00
19795;BME280;10057;59.402;17.866;2023-04-03T11:26:17;103236.91;;;6.99;45.62
19795;BME280;10057;59.402;17.866;2023-04-03T11:28:44;103237.13;;;7.11;45.99
19795;BME280;10057;59.402;17.866;2023-04-03T11:40:07;103228.31;;;7.11;44.35
19795;BME280;10057;59.402;17.866;2023-04-03T11:42:42;103216.38;;;6.83;44.02
19795;BME280;10057;59.402;17.866;2023-04-03T12:00:55;103213.63;;;7.88;44.10
19795;BME280;10057;59.402;17.866;2023-04-03T12:06:42;103197.03;;;8.02;43.60
19795;BME280;10057;59.402;17.866;2023-04-03T12:08:48;103193.44;;;7.94;43.70
19795;BME280;10057;59.402;17.866;2023-04-03T12:11:29;103198.72;;;7.94;43.51
19795;BME280;10057;59.402;17.866;2023-04-03T12:51:21;103160.53;;;6.57;41.67
19795;BME280;10057;59.402;17.866;2023-04-03T12:53:51;103164.31;;;6.71;41.38
19795;BME280;10057;59.402;17.866;2023-04-03T12:58:53;103153.16;;;6.87;41.59
19795;BME280;10057;59.402;17.866;2023-04-03T13:01:23;103146.28;;;7.00;41.19
19795;BME280;10057;59.402;17.866;2023-04-03T13:03:56;103151.69;;;7.06;41.12
19795;BME280;10057;59.402;17.866;2023-04-03T13:06:25;103152.47;;;7.01;40.57
19795;BME280;10057;59.402;17.866;2023-04-03T13:08:55;103149.63;;;6.88;40.77
19795;BME280;10057;59.402;17.866;2023-04-03T13:11:30;103149.38;;;6.73;39.88
19795;BME280;10057;59.402;17.866;2023-04-03T13:14:03;103139.69;;;6.71;41.15
19795;BME280;10057;59.402;17.866;2023-04-03T13:16:33;103132.09;;;6.91;41.00
19795;BME280;10057;59.402;17.866;2023-04-03T13:19:00;103128.03;;;7.12;41.21
19795;BME280;10057;59.402;17.866;2023-04-03T13:21:29;103132.66;;;7.29;41.22
19795;BME280;10057;59.402;17.866;2023-04-03T13:24:00;103119.63;;;7.41;41.37
19795;BME280;10057;59.402;17.866;2023-04-03T13:26:40;103132.06;;;7.50;41.12
19795;BME280;10057;59.402;17.866;2023-04-03T13:29:22;103133.00;;;7.53;41.24
19795;BME280;10057;59.402;17.866;2023-04-03T13:31:57;103129.44;;;7.51;40.81
19795;BME280;10057;59.402;17.866;2023-04-03T13:34:28;103117.94;;;7.48;41.17
19795;BME280;10057;59.402;17.866;2023-04-03T13:37:00;103113.41;;;7.36;40.96
19795;BME280;10057;59.402;17.866;2023-04-03T13:39:31;103109.75;;;7.28;40.87
19795;BME280;10057;59.402;17.866;2023-04-03T13:42:15;103103.47;;;7.21;41.29
19795;BME280;10057;59.402;17.866;2023-04-03T13:44:43;103105.19;;;7.16;40.81
19795;BME280;10057;59.402;17.866;2023-04-03T13:49:39;103098.69;;;6.93;40.97
19795;BME280;10057;59.402;17.866;2023-04-03T13:52:26;103112.69;;;6.88;41.21
19795;BME280;10057;59.402;17.866;2023-04-03T13:55:01;103109.06;;;6.82;40.73
19795;BME280;10057;59.402;17.866;2023-04-03T13:57:33;103104.50;;;6.72;41.36
19795;BME280;10057;59.402;17.866;2023-04-03T14:00:19;103102.59;;;6.63;41.04
19795;BME280;10057;59.402;17.866;2023-04-03T14:02:47;103096.25;;;6.50;40.65
19795;BME280;10057;59.402;17.866;2023-04-03T14:05:13;103093.25;;;6.30;41.34
19795;BME280;10057;59.402;17.866;2023-04-03T14:07:42;103101.09;;;6.27;41.59
19795;BME280;10057;59.402;17.866;2023-04-03T14:10:09;103095.03;;;6.31;41.53
19795;BME280;10057;59.402;17.866;2023-04-03T14:12:38;103090.63;;;6.32;41.57
19795;BME280;10057;59.402;17.866;2023-04-03T14:15:23;103087.16;;;6.33;40.92
19795;BME280;10057;59.402;17.866;2023-04-03T14:17:51;103086.81;;;6.14;40.90
19795;BME280;10057;59.402;17.866;2023-04-03T14:20:20;103075.94;;;5.96;40.98
19795;BME280;10057;59.402;17.866;2023-04-03T14:22:48;103072.88;;;5.78;40.97
19795;BME280;10057;59.402;17.866;2023-04-03T14:25:16;103068.25;;;5.64;41.45
19795;BME280;10057;59.402;17.866;2023-04-03T14:27:46;103075.31;;;5.65;41.31
19795;BME280;10057;59.402;17.866;2023-04-03T14:30:32;103070.16;;;5.72;41.52
19795;BME280;10057;59.402;17.866;2023-04-03T14:32:59;103072.19;;;5.85;41.76
19795;BME280;10057;59.402;17.866;2023-04-03T14:35:26;103062.78;;;5.98;41.38
19795;BME280;10057;59.402;17.866;2023-04-03T14:37:53;103062.13;;;6.09;41.29
19795;BME280;10057;59.402;17.866;2023-04-03T14:40:26;103059.63;;;6.18;41.64
19795;BME280;10057;59.402;17.866;2023-04-03T14:42:53;103064.25;;;6.32;41.83
19795;BME280;10057;59.402;17.866;2023-04-03T14:45:22;103059.31;;;6.50;41.92
19795;BME280;10057;59.402;17.866;2023-04-03T14:47:54;103045.53;;;6.70;41.41
19795;BME280;10057;59.402;17.866;2023-04-03T14:50:26;103040.22;;;6.67;40.91
19795;BME280;10057;59.402;17.866;2023-04-03T14:52:55;103043.72;;;6.65;40.45
19795;BME280;10057;59.402;17.866;2023-04-03T14:55:24;103036.78;;;6.71;40.67